createdAt,value
2022-08-27T00:00:53.216Z,21.24
2022-08-27T00:03:23.440Z,21.18
2022-08-27T00:05:52.105Z,21.34
2022-08-27T00:08:20.378Z,21.38
2022-08-27T00:10:48.673Z,21.34
2022-08-27T00:13:17.371Z,21.25
2022-08-27T00:15:46.984Z,21.26
2022-08-27T00:18:20.859Z,21.31
2022-08-27T00:20:53.194Z,21.34
2022-08-27T00:23:21.762Z,21.32
2022-08-27T00:25:50.168Z,21.34
2022-08-27T00:28:19.048Z,21.39
2022-08-27T00:30:47.641Z,21.45
2022-08-27T00:33:19.805Z,21.38
2022-08-27T00:35:48.069Z,21.32
2022-08-27T00:38:16.497Z,21.32
2022-08-27T00:40:45.835Z,21.25
2022-08-27T00:43:24.497Z,21.18
2022-08-27T00:45:57.373Z,21.00
2022-08-27T00:48:35.573Z,21.09
2022-08-27T00:51:08.917Z,21.15
2022-08-27T00:53:38.866Z,21.19
2022-08-27T00:56:12.069Z,21.25
2022-08-27T00:58:43.660Z,21.27
2022-08-27T01:01:18.232Z,21.25
2022-08-27T01:03:53.019Z,21.19
2022-08-27T01:06:24.638Z,21.11
2022-08-27T01:08:59.049Z,21.15
2022-08-27T01:11:28.149Z,21.18
2022-08-27T01:13:59.611Z,21.21
2022-08-27T01:16:37.333Z,21.12
2022-08-27T01:19:12.452Z,21.07
2022-08-27T01:21:49.814Z,21.13
2022-08-27T01:24:37.081Z,21.22
2022-08-27T01:27:13.426Z,21.23
2022-08-27T01:29:43.719Z,21.13
2022-08-27T01:32:15.972Z,21.11
2022-08-27T01:34:44.764Z,21.22
2022-08-27T01:37:15.818Z,21.13
2022-08-27T01:39:46.074Z,21.05
2022-08-27T01:42:19.397Z,21.02
2022-08-27T01:44:52.133Z,20.89
2022-08-27T01:47:23.736Z,20.98
2022-08-27T01:49:59.298Z,20.94
2022-08-27T01:52:30.538Z,20.94
2022-08-27T01:55:01.171Z,21.00
2022-08-27T01:57:32.547Z,20.98
2022-08-27T02:00:00.737Z,20.97
2022-08-27T02:02:29.277Z,20.97
2022-08-27T02:04:57.784Z,20.98
2022-08-27T02:07:26.182Z,20.97
2022-08-27T02:09:54.727Z,21.01
2022-08-27T02:12:24.611Z,20.97
2022-08-27T02:14:53.447Z,21.02
2022-08-27T02:17:24.422Z,21.01
2022-08-27T02:19:53.657Z,20.93
2022-08-27T02:22:24.757Z,20.85
2022-08-27T02:24:54.122Z,20.98
2022-08-27T02:27:24.304Z,20.98
2022-08-27T02:29:53.359Z,20.89
2022-08-27T02:32:32.180Z,20.88
2022-08-27T02:35:04.861Z,20.84
2022-08-27T02:37:34.157Z,20.80
2022-08-27T02:40:03.171Z,20.84
2022-08-27T02:42:33.079Z,20.91
2022-08-27T02:45:03.484Z,20.82
2022-08-27T02:47:31.807Z,20.85
2022-08-27T02:50:00.431Z,20.71
2022-08-27T02:52:29.771Z,20.76
2022-08-27T02:54:57.977Z,20.79
2022-08-27T02:57:27.408Z,20.75
2022-08-27T02:59:57.089Z,20.77
2022-08-27T03:02:25.904Z,20.93
2022-08-27T03:04:56.704Z,20.89
2022-08-27T03:07:25.699Z,20.96
2022-08-27T03:09:54.203Z,20.78
2022-08-27T03:12:22.917Z,20.83
2022-08-27T03:14:55.364Z,20.68
2022-08-27T03:17:42.504Z,20.65
2022-08-27T03:20:12.595Z,20.65
2022-08-27T03:22:42.397Z,20.74
2022-08-27T03:25:12.099Z,20.78
2022-08-27T03:27:40.487Z,20.65
2022-08-27T03:30:12.473Z,20.74
2022-08-27T03:32:42.552Z,20.82
2022-08-27T03:35:12.304Z,20.79
2022-08-27T03:37:41.375Z,20.82
2022-08-27T03:40:11.459Z,20.92
2022-08-27T03:42:42.688Z,20.84
2022-08-27T03:45:12.660Z,20.90
2022-08-27T03:47:42.326Z,20.84
2022-08-27T03:50:15.705Z,20.86
2022-08-27T03:52:44.474Z,20.90
2022-08-27T03:55:13.040Z,20.78
2022-08-27T03:57:41.610Z,20.65
2022-08-27T04:00:12.472Z,20.60
2022-08-27T04:02:44.364Z,20.68
2022-08-27T04:05:15.766Z,20.69
2022-08-27T04:07:45.541Z,20.66
2022-08-27T04:10:14.353Z,20.65
2022-08-27T04:12:43.668Z,20.34
2022-08-27T04:15:14.084Z,20.38
2022-08-27T04:17:44.945Z,20.35
2022-08-27T04:20:34.447Z,20.33
2022-08-27T04:23:02.726Z,20.33
2022-08-27T04:25:31.232Z,20.34
2022-08-27T04:28:00.225Z,20.47
2022-08-27T04:30:28.856Z,20.47
2022-08-27T04:32:58.788Z,20.49
2022-08-27T04:35:29.744Z,20.63
2022-08-27T04:37:59.270Z,20.58
2022-08-27T04:40:48.433Z,20.53
2022-08-27T04:43:17.700Z,20.40
2022-08-27T04:45:46.879Z,20.41
2022-08-27T04:48:18.982Z,20.48
2022-08-27T04:50:48.930Z,20.46
2022-08-27T04:53:20.702Z,20.46
2022-08-27T04:55:53.237Z,20.54
2022-08-27T04:58:26.392Z,20.46
2022-08-27T05:00:56.413Z,20.52
2022-08-27T05:03:26.877Z,20.61
2022-08-27T05:06:00.979Z,20.56
2022-08-27T05:08:31.795Z,20.55
2022-08-27T05:11:01.943Z,20.58
2022-08-27T05:13:31.415Z,20.62
2022-08-27T05:16:01.646Z,20.64
2022-08-27T05:18:36.383Z,20.68
2022-08-27T05:21:12.729Z,20.70
2022-08-27T05:23:41.525Z,20.65
2022-08-27T05:26:10.345Z,20.48
2022-08-27T05:28:39.140Z,20.67
2022-08-27T05:31:11.846Z,20.57
2022-08-27T05:33:43.860Z,20.56
2022-08-27T05:36:18.561Z,20.36
2022-08-27T05:38:47.189Z,20.34
2022-08-27T05:41:20.066Z,20.34
2022-08-27T05:43:50.565Z,20.37
2022-08-27T05:46:21.010Z,20.57
2022-08-27T05:48:51.878Z,20.41
2022-08-27T05:51:26.108Z,20.48
2022-08-27T05:53:57.796Z,20.58
2022-08-27T05:56:29.581Z,20.58
2022-08-27T05:59:17.994Z,20.81
2022-08-27T06:01:51.798Z,20.73
2022-08-27T06:04:23.780Z,20.74
2022-08-27T06:06:53.972Z,20.79
2022-08-27T06:09:24.429Z,20.76
2022-08-27T06:11:56.401Z,20.63
2022-08-27T06:14:26.933Z,20.81
2022-08-27T06:16:56.825Z,20.85
2022-08-27T06:19:26.760Z,20.90
2022-08-27T06:22:01.014Z,21.09
2022-08-27T06:24:39.538Z,21.27
2022-08-27T06:27:11.490Z,21.24
2022-08-27T06:29:42.281Z,21.17
2022-08-27T06:32:10.872Z,21.03
2022-08-27T06:34:41.244Z,21.03
2022-08-27T06:37:10.402Z,21.26
2022-08-27T06:39:40.607Z,21.49
2022-08-27T06:42:12.819Z,21.27
2022-08-27T06:44:43.071Z,21.13
2022-08-27T06:47:13.334Z,21.20
2022-08-27T06:49:46.235Z,21.29
2022-08-27T06:52:15.448Z,21.28
2022-08-27T06:54:45.337Z,21.57
2022-08-27T06:57:13.423Z,21.78
2022-08-27T06:59:41.877Z,21.88
2022-08-27T07:02:10.404Z,21.87
2022-08-27T07:04:38.992Z,21.98
2022-08-27T07:07:08.738Z,21.94
2022-08-27T07:09:37.167Z,21.97
2022-08-27T07:12:07.275Z,22.11
2022-08-27T07:15:15.579Z,22.03
2022-08-27T07:17:44.882Z,21.91
2022-08-27T07:20:14.621Z,21.74
2022-08-27T07:22:45.662Z,21.75
2022-08-27T07:25:19.871Z,21.77
2022-08-27T07:27:48.646Z,21.82
2022-08-27T07:30:18.786Z,21.84
2022-08-27T07:32:51.605Z,21.88
2022-08-27T07:35:20.361Z,21.87
2022-08-27T07:37:50.258Z,21.95
2022-08-27T07:40:19.111Z,21.94
2022-08-27T07:43:04.486Z,21.92
2022-08-27T07:45:32.701Z,21.96
2022-08-27T07:48:01.188Z,22.01
2022-08-27T07:50:30.689Z,22.13
2022-08-27T07:53:00.236Z,21.81
2022-08-27T07:55:29.108Z,21.96
2022-08-27T07:57:57.633Z,21.92
2022-08-27T08:00:25.863Z,21.98
2022-08-27T08:02:54.363Z,21.84
2022-08-27T08:05:22.989Z,22.20
2022-08-27T08:07:52.883Z,22.18
2022-08-27T08:10:23.607Z,22.23
2022-08-27T08:12:52.205Z,22.33
2022-08-27T08:15:21.447Z,22.37
2022-08-27T08:17:49.853Z,22.37
2022-08-27T08:20:27.476Z,22.51
2022-08-27T08:23:09.917Z,22.53
2022-08-27T08:25:41.311Z,22.36
2022-08-27T08:28:09.679Z,22.49
2022-08-27T08:30:38.361Z,22.71
2022-08-27T08:33:07.352Z,22.76
2022-08-27T08:35:40.928Z,22.73
2022-08-27T08:38:10.750Z,22.72
2022-08-27T08:40:43.419Z,22.91
2022-08-27T08:43:23.449Z,22.85
2022-08-27T08:45:53.321Z,22.70
2022-08-27T08:48:24.405Z,22.74
2022-08-27T08:51:00.698Z,22.71
2022-08-27T08:53:40.693Z,22.96
2022-08-27T08:56:16.661Z,22.90
2022-08-27T08:58:49.330Z,22.75
2022-08-27T09:01:21.059Z,22.81
2022-08-27T09:03:54.755Z,22.99
2022-08-27T09:06:35.187Z,22.81
2022-08-27T09:09:15.720Z,23.11
2022-08-27T09:11:55.158Z,23.05
2022-08-27T09:14:32.031Z,23.08
2022-08-27T09:17:01.957Z,23.14
2022-08-27T09:19:32.397Z,23.04
2022-08-27T09:22:05.236Z,23.24
2022-08-27T09:24:41.872Z,23.39
2022-08-27T09:27:15.121Z,23.30
2022-08-27T09:29:52.940Z,23.25
2022-08-27T09:32:27.223Z,23.49
2022-08-27T09:35:00.294Z,23.26
2022-08-27T09:37:34.153Z,23.22
2022-08-27T09:40:13.636Z,23.39
2022-08-27T09:42:55.006Z,23.30
2022-08-27T09:45:25.243Z,23.35
2022-08-27T09:47:55.948Z,23.60
2022-08-27T09:50:26.255Z,23.60
2022-08-27T09:52:57.095Z,23.46
2022-08-27T09:55:39.604Z,23.64
2022-08-27T09:58:20.455Z,23.41
2022-08-27T10:00:50.352Z,23.81
2022-08-27T10:03:27.958Z,23.82
2022-08-27T10:05:59.148Z,23.71
2022-08-27T10:08:32.469Z,23.52
2022-08-27T10:11:08.293Z,23.50
2022-08-27T10:13:54.188Z,23.64
2022-08-27T10:16:37.950Z,23.70
2022-08-27T10:19:18.118Z,23.63
2022-08-27T10:21:52.881Z,23.30
2022-08-27T10:24:30.466Z,23.16
2022-08-27T10:27:12.538Z,23.20
2022-08-27T10:29:50.326Z,23.20
2022-08-27T10:32:46.464Z,23.14
2022-08-27T10:35:25.260Z,23.31
2022-08-27T10:38:12.138Z,23.56
2022-08-27T10:40:47.246Z,23.79
2022-08-27T10:43:39.939Z,24.25
2022-08-27T10:46:30.190Z,24.24
2022-08-27T10:49:06.186Z,24.46
2022-08-27T10:51:43.160Z,24.68
2022-08-27T10:54:22.841Z,24.65
2022-08-27T10:57:22.794Z,24.76
2022-08-27T10:59:54.817Z,24.86
2022-08-27T11:02:33.527Z,24.92
2022-08-27T11:05:08.048Z,25.02
2022-08-27T11:07:39.915Z,25.03
2022-08-27T11:10:21.115Z,25.27
2022-08-27T11:12:51.960Z,24.65
2022-08-27T11:15:26.673Z,25.18
2022-08-27T11:18:07.736Z,25.46
2022-08-27T11:20:42.473Z,25.41
2022-08-27T11:23:19.186Z,25.55
2022-08-27T11:25:53.126Z,25.34
2022-08-27T11:28:29.925Z,25.43
2022-08-27T11:31:05.410Z,25.75
2022-08-27T11:33:46.007Z,25.99
2022-08-27T11:36:31.447Z,26.23
2022-08-27T11:39:05.989Z,26.50
2022-08-27T11:41:56.439Z,26.95
2022-08-27T11:44:27.578Z,26.87
2022-08-27T11:46:59.334Z,27.19
2022-08-27T11:49:35.652Z,27.21
2022-08-27T11:52:07.454Z,27.47
2022-08-27T11:54:48.520Z,27.66
2022-08-27T11:57:28.388Z,27.29
2022-08-27T11:59:56.649Z,27.87
2022-08-27T12:02:27.965Z,27.58
2022-08-27T12:05:10.461Z,27.42
2022-08-27T12:07:41.297Z,27.55
2022-08-27T12:10:36.649Z,27.77
2022-08-27T12:13:19.095Z,27.65
2022-08-27T12:15:58.565Z,27.87
2022-08-27T12:18:42.312Z,27.81
2022-08-27T12:21:21.634Z,27.97
2022-08-27T12:24:08.542Z,28.16
2022-08-27T12:26:39.387Z,28.49
2022-08-27T12:29:31.833Z,28.01
2022-08-27T12:32:25.036Z,27.84
2022-08-27T12:35:03.174Z,27.52
2022-08-27T12:37:38.353Z,27.63
2022-08-27T12:40:19.851Z,27.04
2022-08-27T12:42:53.132Z,27.17
2022-08-27T12:45:25.102Z,26.94
2022-08-27T12:47:57.058Z,26.55
2022-08-27T12:50:31.230Z,26.67
2022-08-27T12:53:15.546Z,26.11
2022-08-27T12:55:59.848Z,26.33
2022-08-27T12:58:39.174Z,26.39
2022-08-27T13:01:22.584Z,26.67
2022-08-27T13:03:54.436Z,26.60
2022-08-27T13:06:27.760Z,26.16
2022-08-27T13:08:59.488Z,25.82
2022-08-27T13:11:31.481Z,25.55
2022-08-27T13:14:10.026Z,25.79
2022-08-27T13:16:44.081Z,25.75
2022-08-27T13:19:19.757Z,25.34
2022-08-27T13:21:51.352Z,25.69
2022-08-27T13:24:30.566Z,25.23
2022-08-27T13:26:59.523Z,25.30
2022-08-27T13:29:29.000Z,25.50
2022-08-27T13:31:58.596Z,25.57
2022-08-27T13:34:31.662Z,25.50
2022-08-27T13:37:04.412Z,25.52
2022-08-27T13:39:36.197Z,25.47
2022-08-27T13:42:08.606Z,25.47
2022-08-27T13:44:40.563Z,25.50
2022-08-27T13:47:16.027Z,25.30
2022-08-27T13:49:45.058Z,25.49
2022-08-27T13:52:26.001Z,25.79
2022-08-27T13:55:05.921Z,25.73
2022-08-27T13:57:43.459Z,25.47
2022-08-27T14:00:15.470Z,25.45
2022-08-27T14:02:56.375Z,25.63
2022-08-27T14:05:34.827Z,25.67
2022-08-27T14:08:13.343Z,25.90
2022-08-27T14:10:47.523Z,26.02
2022-08-27T14:13:27.183Z,26.14
2022-08-27T14:16:00.328Z,26.10
2022-08-27T14:18:55.482Z,26.40
2022-08-27T14:21:20.580Z,26.43
2022-08-27T14:23:50.542Z,26.60
2022-08-27T14:26:21.766Z,26.80
2022-08-27T14:28:51.630Z,26.76
2022-08-27T14:31:23.958Z,26.77
2022-08-27T14:33:55.680Z,26.72
2022-08-27T14:36:25.740Z,26.85
2022-08-27T14:38:55.490Z,26.62
2022-08-27T14:41:26.299Z,26.49
2022-08-27T14:43:56.182Z,26.49
2022-08-27T14:46:31.474Z,26.44
2022-08-27T14:49:03.733Z,26.61
2022-08-27T14:51:36.109Z,26.29
2022-08-27T14:54:04.783Z,25.90
2022-08-27T14:56:34.894Z,25.81
2022-08-27T14:59:04.390Z,26.01
2022-08-27T15:01:36.088Z,25.91
2022-08-27T15:04:05.807Z,25.83
2022-08-27T15:06:35.144Z,25.73
2022-08-27T15:09:03.559Z,25.60
2022-08-27T15:11:35.963Z,25.58
2022-08-27T15:14:10.888Z,25.35
2022-08-27T15:16:43.724Z,25.14
2022-08-27T15:19:15.474Z,25.20
2022-08-27T15:21:46.698Z,25.23
2022-08-27T15:24:22.774Z,24.92
2022-08-27T15:26:54.024Z,24.86
2022-08-27T15:29:23.067Z,24.57
2022-08-27T15:31:51.735Z,24.45
2022-08-27T15:34:20.695Z,24.42
2022-08-27T15:36:48.743Z,24.43
2022-08-27T15:39:17.204Z,24.04
2022-08-27T15:42:05.092Z,24.20
2022-08-27T15:44:40.764Z,24.32
2022-08-27T15:47:09.242Z,24.23
2022-08-27T15:49:38.786Z,24.22
2022-08-27T15:52:07.508Z,24.14
2022-08-27T15:54:38.167Z,24.02
2022-08-27T15:57:08.928Z,23.85
2022-08-27T15:59:40.194Z,23.88
2022-08-27T16:02:15.778Z,24.10
2022-08-27T16:04:44.720Z,24.34
2022-08-27T16:07:22.400Z,24.45
2022-08-27T16:09:50.807Z,24.66
2022-08-27T16:12:26.900Z,24.72
2022-08-27T16:14:57.243Z,24.52
2022-08-27T16:17:27.055Z,25.13
2022-08-27T16:19:56.193Z,25.21
2022-08-27T16:22:26.358Z,25.07
2022-08-27T16:24:57.060Z,24.69
2022-08-27T16:27:27.943Z,24.66
2022-08-27T16:29:58.659Z,24.05
2022-08-27T16:32:29.429Z,24.16
2022-08-27T16:34:58.103Z,23.95
2022-08-27T16:37:31.656Z,23.69
2022-08-27T16:40:00.739Z,23.53
2022-08-27T16:42:30.483Z,23.43
2022-08-27T16:45:00.989Z,23.55
2022-08-27T16:47:33.373Z,23.34
2022-08-27T16:50:24.104Z,23.28
2022-08-27T16:52:55.514Z,23.44
2022-08-27T16:55:25.809Z,23.34
2022-08-27T16:57:54.601Z,23.51
2022-08-27T17:00:25.026Z,23.14
2022-08-27T17:02:55.657Z,23.08
2022-08-27T17:05:33.955Z,22.79
2022-08-27T17:08:03.287Z,22.82
2022-08-27T17:10:35.908Z,22.77
2022-08-27T17:13:04.617Z,23.03
2022-08-27T17:15:35.241Z,22.94
2022-08-27T17:18:04.135Z,22.96
2022-08-27T17:20:36.131Z,22.90
2022-08-27T17:23:09.635Z,22.61
2022-08-27T17:25:37.975Z,22.39
2022-08-27T17:28:06.679Z,22.62
2022-08-27T17:30:39.502Z,22.31
2022-08-27T17:33:08.598Z,22.14
2022-08-27T17:35:37.052Z,22.11
2022-08-27T17:38:05.904Z,22.02
2022-08-27T17:40:34.232Z,22.09
2022-08-27T17:43:02.975Z,22.03
2022-08-27T17:45:32.409Z,22.08
2022-08-27T17:48:12.123Z,22.06
2022-08-27T17:50:44.960Z,21.77
2022-08-27T17:53:13.483Z,21.91
2022-08-27T17:55:42.798Z,21.90
2022-08-27T17:58:11.376Z,21.97
2022-08-27T18:00:41.686Z,21.75
2022-08-27T18:03:17.872Z,21.87
2022-08-27T18:05:51.204Z,21.92
2022-08-27T18:08:21.816Z,22.14
2022-08-27T18:10:51.817Z,21.90
2022-08-27T18:13:20.658Z,21.73
2022-08-27T18:15:50.626Z,21.66
2022-08-27T18:18:22.980Z,21.58
2022-08-27T18:20:51.627Z,21.38
2022-08-27T18:23:23.392Z,21.32
2022-08-27T18:25:54.594Z,21.29
2022-08-27T18:28:23.362Z,21.39
2022-08-27T18:30:52.860Z,21.40
2022-08-27T18:33:26.992Z,21.28
2022-08-27T18:35:55.724Z,21.33
2022-08-27T18:38:24.912Z,21.20
2022-08-27T18:40:53.774Z,21.12
2022-08-27T18:43:35.042Z,20.99
2022-08-27T18:46:05.470Z,21.22
2022-08-27T18:48:36.081Z,21.41
2022-08-27T18:51:09.343Z,21.38
2022-08-27T18:53:42.020Z,21.47
2022-08-27T18:56:17.637Z,21.27
2022-08-27T18:58:48.988Z,21.21
2022-08-27T19:01:24.454Z,21.25
2022-08-27T19:03:59.717Z,21.20
2022-08-27T19:06:28.804Z,21.11
2022-08-27T19:08:59.458Z,20.98
2022-08-27T19:11:29.972Z,21.20
2022-08-27T19:13:58.421Z,21.27
2022-08-27T19:16:39.410Z,21.04
2022-08-27T19:19:15.418Z,20.71
2022-08-27T19:21:50.687Z,20.90
2022-08-27T19:24:20.345Z,20.89
2022-08-27T19:26:49.546Z,20.77
2022-08-27T19:29:18.475Z,21.00
2022-08-27T19:31:49.016Z,20.75
2022-08-27T19:34:20.235Z,20.68
2022-08-27T19:36:48.501Z,20.66
2022-08-27T19:39:16.931Z,20.87
2022-08-27T19:41:45.287Z,21.01
2022-08-27T19:44:13.825Z,21.21
2022-08-27T19:46:42.692Z,21.13
2022-08-27T19:49:13.552Z,21.01
2022-08-27T19:51:45.700Z,21.12
2022-08-27T19:54:14.747Z,20.89
2022-08-27T19:56:42.920Z,20.86
2022-08-27T19:59:21.339Z,20.89
2022-08-27T20:01:50.409Z,21.05
2022-08-27T20:04:19.201Z,20.91
2022-08-27T20:06:53.244Z,20.73
2022-08-27T20:09:22.547Z,20.82
2022-08-27T20:11:51.046Z,20.64
2022-08-27T20:14:20.267Z,20.65
2022-08-27T20:16:52.094Z,20.64
2022-08-27T20:19:23.325Z,20.33
2022-08-27T20:21:55.776Z,20.44
2022-08-27T20:24:25.539Z,20.04
2022-08-27T20:26:59.785Z,20.34
2022-08-27T20:29:32.441Z,20.14
2022-08-27T20:32:01.660Z,20.08
2022-08-27T20:34:32.642Z,20.28
2022-08-27T20:37:05.904Z,20.08
2022-08-27T20:39:34.676Z,20.04
2022-08-27T20:42:03.652Z,19.91
2022-08-27T20:44:33.244Z,19.79
2022-08-27T20:47:05.266Z,19.77
2022-08-27T20:49:35.530Z,19.87
2022-08-27T20:52:08.599Z,19.81
2022-08-27T20:54:39.496Z,19.89
2022-08-27T20:57:08.970Z,19.82
2022-08-27T20:59:54.901Z,19.96
2022-08-27T21:02:26.237Z,19.67
2022-08-27T21:04:55.081Z,19.72
2022-08-27T21:07:28.660Z,19.58
2022-08-27T21:09:57.707Z,19.55
2022-08-27T21:12:27.949Z,19.60
2022-08-27T21:14:58.028Z,19.39
2022-08-27T21:17:29.120Z,19.59
2022-08-27T21:19:58.304Z,19.62
2022-08-27T21:22:32.080Z,19.51
2022-08-27T21:25:00.834Z,19.40
2022-08-27T21:27:29.336Z,19.53
2022-08-27T21:29:59.664Z,19.55
2022-08-27T21:32:30.504Z,19.25
2022-08-27T21:34:58.716Z,19.30
2022-08-27T21:37:29.052Z,19.35
2022-08-27T21:39:58.732Z,19.34
2022-08-27T21:42:27.700Z,19.32
2022-08-27T21:44:56.069Z,19.28
2022-08-27T21:47:24.945Z,19.42
2022-08-27T21:49:54.225Z,19.33
2022-08-27T21:52:24.015Z,19.25
2022-08-27T21:54:53.890Z,19.25
2022-08-27T21:57:22.424Z,19.28
2022-08-27T21:59:51.952Z,19.44
2022-08-27T22:02:39.431Z,19.24
2022-08-27T22:05:09.856Z,19.19
2022-08-27T22:07:39.568Z,19.19
2022-08-27T22:10:10.396Z,19.17
2022-08-27T22:12:38.593Z,19.16
2022-08-27T22:15:09.872Z,19.27
2022-08-27T22:17:38.404Z,19.21
2022-08-27T22:20:09.956Z,19.08
2022-08-27T22:22:38.880Z,19.04
2022-08-27T22:25:12.656Z,19.06
2022-08-27T22:27:42.067Z,19.13
2022-08-27T22:30:12.877Z,19.14
2022-08-27T22:32:42.432Z,19.24
2022-08-27T22:35:12.052Z,19.26
2022-08-27T22:37:40.633Z,19.23
2022-08-27T22:40:19.272Z,19.10
2022-08-27T22:42:48.824Z,19.14
2022-08-27T22:45:17.584Z,18.96
2022-08-27T22:47:46.159Z,18.91
2022-08-27T22:50:15.143Z,18.84
2022-08-27T22:52:44.004Z,18.91
2022-08-27T22:55:18.852Z,18.85
2022-08-27T22:57:48.091Z,18.94
2022-08-27T23:00:22.262Z,19.03
2022-08-27T23:02:51.042Z,18.92
2022-08-27T23:05:19.914Z,18.93
2022-08-27T23:07:49.426Z,18.90
2022-08-27T23:10:25.486Z,18.78
2022-08-27T23:12:54.890Z,18.88
2022-08-27T23:15:26.191Z,18.65
2022-08-27T23:17:55.344Z,18.73
2022-08-27T23:20:29.374Z,18.63
2022-08-27T23:22:58.771Z,18.55
2022-08-27T23:25:46.345Z,18.48
2022-08-27T23:28:15.950Z,18.40
2022-08-27T23:30:45.920Z,18.34
2022-08-27T23:33:15.854Z,18.47
2022-08-27T23:35:48.266Z,18.30
2022-08-27T23:38:17.433Z,18.44
2022-08-27T23:40:48.656Z,18.48
2022-08-27T23:43:17.831Z,18.50
2022-08-27T23:45:46.045Z,18.46
2022-08-27T23:48:15.234Z,18.53
2022-08-27T23:50:44.322Z,18.42
2022-08-27T23:53:13.400Z,18.47
2022-08-27T23:55:41.873Z,18.41
2022-08-27T23:58:13.589Z,18.42
